sensor_id;sensor_type;location;lat;lon;timestamp;pressure;altitude;pressure_sealevel;temperature;humidity
47761;BME280;33524;55.434;38.520;2023-11-21T00:00:48;99670.25;;;-9.52;99.34
47761;BME280;33524;55.434;38.520;2023-11-21T00:03:16;99671.94;;;-9.51;99.37
47761;BME280;33524;55.434;38.520;2023-11-21T00:05:44;99682.13;;;-9.58;99.11
47761;BME280;33524;55.434;38.520;2023-11-21T00:08:12;99675.38;;;-9.65;98.99
47761;BME280;33524;55.434;38.520;2023-11-21T00:10:40;99646.56;;;-9.85;98.94
47761;BME280;33524;55.434;38.520;2023-11-21T00:13:08;99675.34;;;-9.63;99.17
47761;BME280;33524;55.434;38.520;2023-11-21T00:15:36;99673.66;;;-9.67;99.26
47761;BME280;33524;55.434;38.520;2023-11-21T00:18:04;99672.78;;;-9.57;99.45
47761;BME280;33524;55.434;38.520;2023-11-21T00:20:32;99678.72;;;-9.47;99.31
47761;BME280;33524;55.434;38.520;2023-11-21T00:23:00;99677.03;;;-9.58;99.01
47761;BME280;33524;55.434;38.520;2023-11-21T00:25:30;99669.38;;;-9.45;99.58
47761;BME280;33524;55.434;38.520;2023-11-21T00:27:59;99672.78;;;-9.63;98.81
47761;BME280;33524;55.434;38.520;2023-11-21T00:30:29;99664.19;;;-9.19;100.00
47761;BME280;33524;55.434;38.520;2023-11-21T00:32:58;99678.72;;;-9.46;99.29
47761;BME280;33524;55.434;38.520;2023-11-21T00:35:26;99682.13;;;-9.55;98.85
47761;BME280;33524;55.434;38.520;2023-11-21T00:37:55;99680.41;;;-9.49;99.21
47761;BME280;33524;55.434;38.520;2023-11-21T00:40:23;99672.78;;;-9.52;99.13
47761;BME280;33524;55.434;38.520;2023-11-21T00:42:55;99673.63;;;-9.50;99.48
47761;BME280;33524;55.434;38.520;2023-11-21T00:45:24;99680.41;;;-9.43;99.52
47761;BME280;33524;55.434;38.520;2023-11-21T00:47:53;99681.28;;;-9.58;99.11
47761;BME280;33524;55.434;38.520;2023-11-21T00:50:21;99681.28;;;-9.54;99.31
47761;BME280;33524;55.434;38.520;2023-11-21T00:52:50;99676.19;;;-9.57;99.02
47761;BME280;33524;55.434;38.520;2023-11-21T00:55:19;99675.31;;;-9.46;99.29
47761;BME280;33524;55.434;38.520;2023-11-21T00:57:47;99673.63;;;-9.47;99.09
47761;BME280;33524;55.434;38.520;2023-11-21T01:00:15;99674.41;;;-9.35;99.40
47761;BME280;33524;55.434;38.520;2023-11-21T01:02:45;99665.09;;;-9.29;99.31
47761;BME280;33524;55.434;38.520;2023-11-21T01:05:14;99673.63;;;-9.50;98.75
47761;BME280;33524;55.434;38.520;2023-11-21T01:07:42;99674.50;;;-9.56;98.83
47761;BME280;33524;55.434;38.520;2023-11-21T01:10:10;99662.62;;;-9.68;98.59
47761;BME280;33524;55.434;38.520;2023-11-21T01:12:38;99671.09;;;-9.52;98.72
47761;BME280;33524;55.434;38.520;2023-11-21T01:15:07;99670.25;;;-9.57;98.76
47761;BME280;33524;55.434;38.520;2023-11-21T01:17:35;99666.88;;;-9.67;98.96
47761;BME280;33524;55.434;38.520;2023-11-21T01:20:04;99669.38;;;-9.48;99.52
47761;BME280;33524;55.434;38.520;2023-11-21T01:22:41;99672.78;;;-9.57;99.09
47761;BME280;33524;55.434;38.520;2023-11-21T01:25:10;99680.47;;;-9.65;98.95
47761;BME280;33524;55.434;38.520;2023-11-21T01:27:42;99677.06;;;-9.73;98.93
47761;BME280;33524;55.434;38.520;2023-11-21T01:30:11;99674.53;;;-9.76;99.05
47761;BME280;33524;55.434;38.520;2023-11-21T01:32:39;99666.06;;;-9.81;99.05
47761;BME280;33524;55.434;38.520;2023-11-21T01:35:09;99671.16;;;-9.89;99.05
47761;BME280;33524;55.434;38.520;2023-11-21T01:37:38;99672.00;;;-9.87;99.15
47761;BME280;33524;55.434;38.520;2023-11-21T01:40:07;99672.00;;;-9.87;99.25
47761;BME280;33524;55.434;38.520;2023-11-21T01:42:39;99666.09;;;-9.92;99.16
47761;BME280;33524;55.434;38.520;2023-11-21T01:45:08;99667.78;;;-9.88;99.29
47761;BME280;33524;55.434;38.520;2023-11-21T01:47:41;99668.59;;;-9.90;99.21
47761;BME280;33524;55.434;38.520;2023-11-21T01:50:09;99671.16;;;-9.87;99.36
47761;BME280;33524;55.434;38.520;2023-11-21T01:52:46;99667.78;;;-9.96;99.15
47761;BME280;33524;55.434;38.520;2023-11-21T01:55:17;99670.31;;;-10.02;99.08
47761;BME280;33524;55.434;38.520;2023-11-21T01:57:56;99674.56;;;-10.05;99.10
47761;BME280;33524;55.434;38.520;2023-11-21T02:00:28;99676.28;;;-10.10;99.01
47761;BME280;33524;55.434;38.520;2023-11-21T02:02:57;99685.56;;;-10.05;99.15
47761;BME280;33524;55.434;38.520;2023-11-21T02:05:27;99689.81;;;-10.11;99.18
47761;BME280;33524;55.434;38.520;2023-11-21T02:07:59;99674.56;;;-10.16;99.23
47761;BME280;33524;55.434;38.520;2023-11-21T02:10:28;99688.13;;;-10.12;99.32
47761;BME280;33524;55.434;38.520;2023-11-21T02:12:59;99678.78;;;-10.15;99.36
47761;BME280;33524;55.434;38.520;2023-11-21T02:15:34;99677.94;;;-10.23;99.26
47761;BME280;33524;55.434;38.520;2023-11-21T02:18:03;99678.78;;;-10.26;99.38
47761;BME280;33524;55.434;38.520;2023-11-21T02:20:34;99686.44;;;-10.24;99.33
47761;BME280;33524;55.434;38.520;2023-11-21T02:23:04;99694.91;;;-10.28;99.30
47761;BME280;33524;55.434;38.520;2023-11-21T02:25:33;99685.59;;;-10.36;99.31
47761;BME280;33524;55.434;38.520;2023-11-21T02:28:03;99690.69;;;-10.39;99.48
47761;BME280;33524;55.434;38.520;2023-11-21T02:30:31;99694.09;;;-10.37;99.53
47761;BME280;33524;55.434;38.520;2023-11-21T02:33:02;99690.69;;;-10.36;99.37
47761;BME280;33524;55.434;38.520;2023-11-21T02:35:30;99698.31;;;-10.40;99.22
47761;BME280;33524;55.434;38.520;2023-11-21T02:37:59;99708.47;;;-10.40;99.36
47761;BME280;33524;55.434;38.520;2023-11-21T02:40:31;99706.78;;;-10.41;99.53
47761;BME280;33524;55.434;38.520;2023-11-21T02:42:59;99717.78;;;-10.38;99.60
47761;BME280;33524;55.434;38.520;2023-11-21T02:45:28;99721.22;;;-10.31;99.67
47761;BME280;33524;55.434;38.520;2023-11-21T02:47:59;99726.28;;;-10.19;99.93
47761;BME280;33524;55.434;38.520;2023-11-21T02:50:26;99722.03;;;-10.15;99.53
47761;BME280;33524;55.434;38.520;2023-11-21T02:52:55;99722.03;;;-10.15;99.04
47761;BME280;33524;55.434;38.520;2023-11-21T02:55:26;99721.19;;;-10.08;99.20
47761;BME280;33524;55.434;38.520;2023-11-21T02:57:54;99724.56;;;-10.15;98.80
47761;BME280;33524;55.434;38.520;2023-11-21T03:00:25;99724.59;;;-10.12;98.89
47761;BME280;33524;55.434;38.520;2023-11-21T03:02:56;99722.03;;;-10.07;98.84
47761;BME280;33524;55.434;38.520;2023-11-21T03:05:26;99725.41;;;-10.07;98.78
47761;BME280;33524;55.434;38.520;2023-11-21T03:07:56;99722.88;;;-9.88;99.20
47761;BME280;33524;55.434;38.520;2023-11-21T03:10:25;99719.47;;;-10.03;98.40
47761;BME280;33524;55.434;38.520;2023-11-21T03:12:53;99717.78;;;-9.95;98.70
47761;BME280;33524;55.434;38.520;2023-11-21T03:15:21;99723.72;;;-9.92;98.42
47761;BME280;33524;55.434;38.520;2023-11-21T03:17:49;99727.97;;;-9.95;98.19
47761;BME280;33524;55.434;38.520;2023-11-21T03:20:18;99734.75;;;-9.87;98.24
47761;BME280;33524;55.434;38.520;2023-11-21T03:22:46;99742.41;;;-9.86;97.97
47761;BME280;33524;55.434;38.520;2023-11-21T03:25:15;99741.53;;;-9.86;97.83
47761;BME280;33524;55.434;38.520;2023-11-21T03:27:45;99745.75;;;-9.71;97.88
47761;BME280;33524;55.434;38.520;2023-11-21T03:30:13;99744.09;;;-9.66;98.11
47761;BME280;33524;55.434;38.520;2023-11-21T03:32:41;99739.84;;;-9.63;97.66
47761;BME280;33524;55.434;38.520;2023-11-21T03:35:09;99733.91;;;-9.71;97.54
47761;BME280;33524;55.434;38.520;2023-11-21T03:37:37;99751.72;;;-9.68;97.22
47761;BME280;33524;55.434;38.520;2023-11-21T03:40:10;99744.94;;;-9.63;97.54
47761;BME280;33524;55.434;38.520;2023-11-21T03:42:38;99728.78;;;-9.63;97.25
47761;BME280;33524;55.434;38.520;2023-11-21T03:45:07;99756.78;;;-9.62;97.08
47761;BME280;33524;55.434;38.520;2023-11-21T03:47:36;99765.28;;;-9.60;97.06
47761;BME280;33524;55.434;38.520;2023-11-21T03:50:05;99733.03;;;-9.70;96.89
47761;BME280;33524;55.434;38.520;2023-11-21T03:52:33;99755.09;;;-9.47;96.92
47761;BME280;33524;55.434;38.520;2023-11-21T03:55:02;99760.19;;;-9.44;96.94
47761;BME280;33524;55.434;38.520;2023-11-21T03:57:33;99750.84;;;-9.42;96.89
47761;BME280;33524;55.434;38.520;2023-11-21T04:00:04;99756.78;;;-9.46;96.68
47761;BME280;33524;55.434;38.520;2023-11-21T04:02:41;99750.81;;;-9.39;96.62
47761;BME280;33524;55.434;38.520;2023-11-21T04:05:10;99747.44;;;-9.47;96.41
47761;BME280;33524;55.434;38.520;2023-11-21T04:07:38;99734.72;;;-9.38;96.71
47761;BME280;33524;55.434;38.520;2023-11-21T04:10:09;99750.00;;;-9.50;96.09
47761;BME280;33524;55.434;38.520;2023-11-21T04:12:38;99754.19;;;-9.32;96.55
47761;BME280;33524;55.434;38.520;2023-11-21T04:15:07;99751.66;;;-9.39;96.34
47761;BME280;33524;55.434;38.520;2023-11-21T04:17:36;99758.44;;;-9.33;96.46
47761;BME280;33524;55.434;38.520;2023-11-21T04:20:06;99760.19;;;-9.38;95.90
47761;BME280;33524;55.434;38.520;2023-11-21T04:22:41;99763.53;;;-9.27;96.46
47761;BME280;33524;55.434;38.520;2023-11-21T04:25:16;99760.13;;;-9.17;96.56
47761;BME280;33524;55.434;38.520;2023-11-21T04:27:45;99731.31;;;-9.37;96.30
47761;BME280;33524;55.434;38.520;2023-11-21T04:30:14;99761.78;;;-9.16;96.48
47761;BME280;33524;55.434;38.520;2023-11-21T04:32:42;99759.28;;;-9.26;96.04
47761;BME280;33524;55.434;38.520;2023-11-21T04:35:11;99738.09;;;-9.36;96.43
47761;BME280;33524;55.434;38.520;2023-11-21T04:37:39;99751.66;;;-9.28;96.02
47761;BME280;33524;55.434;38.520;2023-11-21T04:40:08;99751.69;;;-9.34;95.85
47761;BME280;33524;55.434;38.520;2023-11-21T04:42:37;99751.69;;;-9.34;95.64
47761;BME280;33524;55.434;38.520;2023-11-21T04:45:06;99756.75;;;-9.28;95.92
47761;BME280;33524;55.434;38.520;2023-11-21T04:47:40;99755.88;;;-9.15;96.42
47761;BME280;33524;55.434;38.520;2023-11-21T04:50:10;99755.06;;;-9.32;95.20
47761;BME280;33524;55.434;38.520;2023-11-21T04:52:39;99750.81;;;-9.31;95.66
47761;BME280;33524;55.434;38.520;2023-11-21T04:55:09;99746.59;;;-9.40;95.46
47761;BME280;33524;55.434;38.520;2023-11-21T04:57:39;99756.81;;;-9.52;95.21
47761;BME280;33524;55.434;38.520;2023-11-21T05:00:10;99756.78;;;-9.49;95.54
47761;BME280;33524;55.434;38.520;2023-11-21T05:02:41;99763.56;;;-9.47;95.66
47761;BME280;33524;55.434;38.520;2023-11-21T05:05:09;99769.50;;;-9.43;95.53
47761;BME280;33524;55.434;38.520;2023-11-21T05:07:41;99771.19;;;-9.39;95.67
47761;BME280;33524;55.434;38.520;2023-11-21T05:10:12;99774.59;;;-9.48;95.09
47761;BME280;33524;55.434;38.520;2023-11-21T05:12:44;99778.84;;;-9.45;95.25
47761;BME280;33524;55.434;38.520;2023-11-21T05:15:14;99783.94;;;-9.51;95.56
47761;BME280;33524;55.434;38.520;2023-11-21T05:17:44;99781.41;;;-9.48;95.40
47761;BME280;33524;55.434;38.520;2023-11-21T05:20:16;99780.53;;;-9.35;95.85
47761;BME280;33524;55.434;38.520;2023-11-21T05:22:53;99790.72;;;-9.35;95.46
47761;BME280;33524;55.434;38.520;2023-11-21T05:25:26;99783.91;;;-9.28;95.96
47761;BME280;33524;55.434;38.520;2023-11-21T05:27:55;99800.88;;;-9.23;95.26
47761;BME280;33524;55.434;38.520;2023-11-21T05:30:29;99799.19;;;-9.24;94.92
47761;BME280;33524;55.434;38.520;2023-11-21T05:32:58;99796.63;;;-9.15;95.04
47761;BME280;33524;55.434;38.520;2023-11-21T05:35:28;99797.50;;;-9.28;94.49
47761;BME280;33524;55.434;38.520;2023-11-21T05:38:00;99810.22;;;-9.26;94.62
47761;BME280;33524;55.434;38.520;2023-11-21T05:40:32;99813.59;;;-9.14;94.44
47761;BME280;33524;55.434;38.520;2023-11-21T05:43:05;99820.41;;;-9.19;94.32
47761;BME280;33524;55.434;38.520;2023-11-21T05:45:38;99818.69;;;-9.06;94.41
47761;BME280;33524;55.434;38.520;2023-11-21T05:48:10;99819.53;;;-9.11;94.55
47761;BME280;33524;55.434;38.520;2023-11-21T05:50:42;99820.34;;;-8.97;94.78
47761;BME280;33524;55.434;38.520;2023-11-21T05:53:15;99814.41;;;-9.05;94.23
47761;BME280;33524;55.434;38.520;2023-11-21T05:55:47;99813.62;;;-9.29;93.50
47761;BME280;33524;55.434;38.520;2023-11-21T05:58:19;99789.00;;;-9.33;94.25
47761;BME280;33524;55.434;38.520;2023-11-21T06:00:52;99822.97;;;-9.22;93.72
47761;BME280;33524;55.434;38.520;2023-11-21T06:03:25;99792.44;;;-9.34;93.94
47761;BME280;33524;55.434;38.520;2023-11-21T06:05:56;99815.28;;;-9.14;93.61
47761;BME280;33524;55.434;38.520;2023-11-21T06:08:29;99815.28;;;-9.06;94.02
47761;BME280;33524;55.434;38.520;2023-11-21T06:11:02;99810.25;;;-9.29;93.36
47761;BME280;33524;55.434;38.520;2023-11-21T06:13:35;99813.62;;;-9.15;94.41
47761;BME280;33524;55.434;38.520;2023-11-21T06:16:09;99816.13;;;-9.14;93.75
47761;BME280;33524;55.434;38.520;2023-11-21T06:18:47;99816.97;;;-9.11;93.42
47761;BME280;33524;55.434;38.520;2023-11-21T06:21:19;99819.53;;;-9.15;93.14
47761;BME280;33524;55.434;38.520;2023-11-21T06:23:54;99828.84;;;-8.94;93.68
47761;BME280;33524;55.434;38.520;2023-11-21T06:26:29;99823.75;;;-8.90;93.00
47761;BME280;33524;55.434;38.520;2023-11-21T06:29:03;99814.47;;;-9.21;92.54
47761;BME280;33524;55.434;38.520;2023-11-21T06:31:36;99817.00;;;-9.15;92.72
47761;BME280;33524;55.434;38.520;2023-11-21T06:34:14;99815.28;;;-9.05;93.15
47761;BME280;33524;55.434;38.520;2023-11-21T06:36:51;99828.03;;;-9.13;92.62
47761;BME280;33524;55.434;38.520;2023-11-21T06:39:26;99821.22;;;-8.98;92.45
47761;BME280;33524;55.434;38.520;2023-11-21T06:42:01;99818.66;;;-8.94;92.38
47761;BME280;33524;55.434;38.520;2023-11-21T06:44:35;99817.78;;;-8.85;92.55
47761;BME280;33524;55.434;38.520;2023-11-21T06:47:11;99811.00;;;-8.84;92.03
47761;BME280;33524;55.434;38.520;2023-11-21T06:49:52;99822.81;;;-8.63;92.71
47761;BME280;33524;55.434;38.520;2023-11-21T06:52:29;99805.91;;;-8.86;92.09
47761;BME280;33524;55.434;38.520;2023-11-21T06:55:07;99816.91;;;-8.81;92.89
47761;BME280;33524;55.434;38.520;2023-11-21T06:57:50;99814.41;;;-8.93;91.28
47761;BME280;33524;55.434;38.520;2023-11-21T07:00:29;99805.06;;;-8.94;89.98
47761;BME280;33524;55.434;38.520;2023-11-21T07:03:03;99816.91;;;-8.78;89.94
47761;BME280;33524;55.434;38.520;2023-11-21T07:05:40;99821.91;;;-8.56;90.78
47761;BME280;33524;55.434;38.520;2023-11-21T07:08:22;99823.72;;;-8.80;89.57
47761;BME280;33524;55.434;38.520;2023-11-21T07:11:05;99820.31;;;-8.74;89.12
47761;BME280;33524;55.434;38.520;2023-11-21T07:13:38;99821.16;;;-8.74;88.41
47761;BME280;33524;55.434;38.520;2023-11-21T07:16:18;99834.75;;;-8.79;88.65
47761;BME280;33524;55.434;38.520;2023-11-21T07:19:07;99818.56;;;-8.64;89.17
47761;BME280;33524;55.434;38.520;2023-11-21T07:21:47;99828.75;;;-8.63;88.53
47761;BME280;33524;55.434;38.520;2023-11-21T07:24:29;99819.34;;;-8.48;89.05
47761;BME280;33524;55.434;38.520;2023-11-21T07:27:05;99826.13;;;-8.46;88.07
47761;BME280;33524;55.434;38.520;2023-11-21T07:29:44;99831.31;;;-8.67;88.21
47761;BME280;33524;55.434;38.520;2023-11-21T07:32:22;99842.38;;;-8.71;88.09
47761;BME280;33524;55.434;38.520;2023-11-21T07:35:04;99840.75;;;-8.99;86.93
47761;BME280;33524;55.434;38.520;2023-11-21T07:37:50;99839.84;;;-8.76;88.01
47761;BME280;33524;55.434;38.520;2023-11-21T07:40:31;99827.72;;;-8.29;91.37
47761;BME280;33524;55.434;38.520;2023-11-21T07:43:13;99824.44;;;-8.41;88.06
47761;BME280;33524;55.434;38.520;2023-11-21T07:45:48;99844.81;;;-8.45;87.54
47761;BME280;33524;55.434;38.520;2023-11-21T07:48:31;99831.19;;;-8.37;89.44
47761;BME280;33524;55.434;38.520;2023-11-21T07:51:03;99834.56;;;-8.35;87.75
47761;BME280;33524;55.434;38.520;2023-11-21T07:53:43;99831.28;;;-8.58;87.08
47761;BME280;33524;55.434;38.520;2023-11-21T07:56:32;99839.78;;;-8.61;86.17
47761;BME280;33524;55.434;38.520;2023-11-21T07:59:10;99831.13;;;-8.24;88.38
47761;BME280;33524;55.434;38.520;2023-11-21T08:01:55;99849.13;;;-8.55;87.12
47761;BME280;33524;55.434;38.520;2023-11-21T08:04:44;99841.34;;;-8.30;87.84
47761;BME280;33524;55.434;38.520;2023-11-21T08:07:27;99849.94;;;-8.44;87.08
47761;BME280;33524;55.434;38.520;2023-11-21T08:10:04;99851.47;;;-8.12;87.75
47761;BME280;33524;55.434;38.520;2023-11-21T08:12:43;99863.47;;;-8.36;86.33
47761;BME280;33524;55.434;38.520;2023-11-21T08:15:17;99862.72;;;-8.53;85.44
47761;BME280;33524;55.434;38.520;2023-11-21T08:17:57;99862.72;;;-8.55;86.08
47761;BME280;33524;55.434;38.520;2023-11-21T08:20:31;99863.59;;;-8.59;85.74
47761;BME280;33524;55.434;38.520;2023-11-21T08:23:14;99862.59;;;-8.28;88.24
47761;BME280;33524;55.434;38.520;2023-11-21T08:25:57;99859.16;;;-8.18;87.90
47761;BME280;33524;55.434;38.520;2023-11-21T08:28:29;99864.16;;;-8.00;89.08
47761;BME280;33524;55.434;38.520;2023-11-21T08:31:05;99860.91;;;-8.37;85.59
47761;BME280;33524;55.434;38.520;2023-11-21T08:33:46;99861.66;;;-8.15;86.97
47761;BME280;33524;55.434;38.520;2023-11-21T08:36:34;99864.87;;;-7.76;89.33
47761;BME280;33524;55.434;38.520;2023-11-21T08:39:14;99861.63;;;-8.04;86.19
47761;BME280;33524;55.434;38.520;2023-11-21T08:41:57;99855.72;;;-8.14;86.40
47761;BME280;33524;55.434;38.520;2023-11-21T08:44:49;99846.38;;;-8.15;85.75
47761;BME280;33524;55.434;38.520;2023-11-21T08:47:32;99858.28;;;-8.16;85.95
47761;BME280;33524;55.434;38.520;2023-11-21T08:50:13;99854.69;;;-7.85;87.03
47761;BME280;33524;55.434;38.520;2023-11-21T08:52:49;99849.47;;;-7.67;87.45
47761;BME280;33524;55.434;38.520;2023-11-21T08:55:31;99854.81;;;-8.04;85.52
47761;BME280;33524;55.434;38.520;2023-11-21T08:58:14;99848.91;;;-8.15;86.55
47761;BME280;33524;55.434;38.520;2023-11-21T09:00:57;99845.38;;;-7.91;86.37
47761;BME280;33524;55.434;38.520;2023-11-21T09:03:44;99831.06;;;-8.15;85.21
47761;BME280;33524;55.434;38.520;2023-11-21T09:06:34;99845.62;;;-8.39;85.27
47761;BME280;33524;55.434;38.520;2023-11-21T09:09:12;99849.72;;;-8.07;86.42
47761;BME280;33524;55.434;38.520;2023-11-21T09:11:58;99851.47;;;-8.15;86.10
47761;BME280;33524;55.434;38.520;2023-11-21T09:14:42;99853.09;;;-7.99;85.75
47761;BME280;33524;55.434;38.520;2023-11-21T09:17:28;99848.72;;;-7.81;86.23
47761;BME280;33524;55.434;38.520;2023-11-21T09:20:14;99851.47;;;-8.12;86.03
47761;BME280;33524;55.434;38.520;2023-11-21T09:22:55;99847.94;;;-7.89;87.15
47761;BME280;33524;55.434;38.520;2023-11-21T09:25:41;99859.03;;;-7.95;86.53
47761;BME280;33524;55.434;38.520;2023-11-21T09:28:19;99849.72;;;-8.07;85.15
47761;BME280;33524;55.434;38.520;2023-11-21T09:30:55;99854.69;;;-7.82;86.14
47761;BME280;33524;55.434;38.520;2023-11-21T09:33:36;99848.00;;;-8.02;84.81
47761;BME280;33524;55.434;38.520;2023-11-21T09:36:23;99852.22;;;-7.96;84.87
47761;BME280;33524;55.434;38.520;2023-11-21T09:39:05;99865.13;;;-8.27;85.05
47761;BME280;33524;55.434;38.520;2023-11-21T09:41:57;99856.59;;;-8.18;85.56
47761;BME280;33524;55.434;38.520;2023-11-21T09:45:11;99855.53;;;-7.83;85.47
47761;BME280;33524;55.434;38.520;2023-11-21T09:47:38;99852.31;;;-8.12;85.02
47761;BME280;33524;55.434;38.520;2023-11-21T09:50:19;99849.78;;;-8.19;85.79
47761;BME280;33524;55.434;38.520;2023-11-21T09:55:56;99860.66;;;-7.85;85.90
47761;BME280;33524;55.434;38.520;2023-11-21T09:58:32;99855.69;;;-8.08;85.26
47761;BME280;33524;55.434;38.520;2023-11-21T10:01:14;99847.06;;;-7.90;85.79
47761;BME280;33524;55.434;38.520;2023-11-21T10:03:56;99852.25;;;-7.99;85.28
47761;BME280;33524;55.434;38.520;2023-11-21T10:06:42;99856.47;;;-7.94;85.37
47761;BME280;33524;55.434;38.520;2023-11-21T10:09:29;99859.88;;;-7.93;84.94
47761;BME280;33524;55.434;38.520;2023-11-21T10:12:07;99851.41;;;-8.03;84.92
47761;BME280;33524;55.434;38.520;2023-11-21T10:14:57;99854.72;;;-7.90;85.48
47761;BME280;33524;55.434;38.520;2023-11-21T10:17:40;99853.63;;;-7.52;86.18
47761;BME280;33524;55.434;38.520;2023-11-21T10:20:19;99864.03;;;-7.80;83.38
47761;BME280;33524;55.434;38.520;2023-11-21T10:22:57;99863.16;;;-7.73;84.73
47761;BME280;33524;55.434;38.520;2023-11-21T10:25:38;99859.94;;;-8.05;82.62
47761;BME280;33524;55.434;38.520;2023-11-21T10:28:22;99864.22;;;-8.12;83.49
47761;BME280;33524;55.434;38.520;2023-11-21T10:31:07;99865.00;;;-7.98;83.21
47761;BME280;33524;55.434;38.520;2023-11-21T10:33:51;99861.53;;;-7.91;85.11
47761;BME280;33524;55.434;38.520;2023-11-21T10:36:28;99866.69;;;-7.97;82.73
47761;BME280;33524;55.434;38.520;2023-11-21T10:39:06;99870.84;;;-7.79;84.05
47761;BME280;33524;55.434;38.520;2023-11-21T10:41:58;99871.37;;;-7.37;84.66
47761;BME280;33524;55.434;38.520;2023-11-21T10:44:41;99880.28;;;-7.92;81.52
47761;BME280;33524;55.434;38.520;2023-11-21T10:47:26;99873.50;;;-7.96;81.57
47761;BME280;33524;55.434;38.520;2023-11-21T10:50:02;99876.97;;;-8.15;81.67
47761;BME280;33524;55.434;38.520;2023-11-21T10:52:54;99880.38;;;-8.13;81.93
47761;BME280;33524;55.434;38.520;2023-11-21T10:55:35;99877.06;;;-8.32;82.12
47761;BME280;33524;55.434;38.520;2023-11-21T10:58:26;99883.78;;;-8.17;82.27
47761;BME280;33524;55.434;38.520;2023-11-21T11:01:00;99882.16;;;-8.34;82.82
47761;BME280;33524;55.434;38.520;2023-11-21T11:03:44;99888.91;;;-8.19;82.78
47761;BME280;33524;55.434;38.520;2023-11-21T11:06:34;99873.63;;;-8.23;82.93
47761;BME280;33524;55.434;38.520;2023-11-21T11:09:25;99883.72;;;-7.99;83.40
47761;BME280;33524;55.434;38.520;2023-11-21T11:12:10;99853.22;;;-8.23;83.14
47761;BME280;33524;55.434;38.520;2023-11-21T11:14:45;99874.44;;;-8.12;83.89
47761;BME280;33524;55.434;38.520;2023-11-21T11:17:33;99880.28;;;-7.93;84.06
47761;BME280;33524;55.434;38.520;2023-11-21T11:20:16;99870.13;;;-8.07;84.25
47761;BME280;33524;55.434;38.520;2023-11-21T11:32:38;99882.69;;;-7.72;85.76
47761;BME280;33524;55.434;38.520;2023-11-21T11:38:51;99879.87;;;-7.36;87.01
47761;BME280;33524;55.434;38.520;2023-11-21T11:41:34;99887.66;;;-7.48;83.85
47761;BME280;33524;55.434;38.520;2023-11-21T11:47:34;99880.22;;;-7.85;84.19
47761;BME280;33524;55.434;38.520;2023-11-21T11:50:13;99882.91;;;-8.04;84.08
47761;BME280;33524;55.434;38.520;2023-11-21T11:52:52;99885.44;;;-8.04;83.85
47761;BME280;33524;55.434;38.520;2023-11-21T11:55:26;99894.00;;;-8.17;84.30
47761;BME280;33524;55.434;38.520;2023-11-21T11:58:06;99897.41;;;-8.14;84.73
47761;BME280;33524;55.434;38.520;2023-11-21T12:00:46;99898.19;;;-8.02;85.56
47761;BME280;33524;55.434;38.520;2023-11-21T12:03:35;99892.22;;;-7.94;85.58
47761;BME280;33524;55.434;38.520;2023-11-21T12:06:15;99890.44;;;-7.82;85.76
47761;BME280;33524;55.434;38.520;2023-11-21T12:09:06;99902.44;;;-8.03;84.93
47761;BME280;33524;55.434;38.520;2023-11-21T12:11:41;99887.81;;;-7.72;86.66
47761;BME280;33524;55.434;38.520;2023-11-21T12:14:24;99900.63;;;-7.82;85.71
47761;BME280;33524;55.434;38.520;2023-11-21T12:17:07;99913.53;;;-8.15;84.42
47761;BME280;33524;55.434;38.520;2023-11-21T12:19:52;99919.47;;;-8.05;85.02
47761;BME280;33524;55.434;38.520;2023-11-21T12:22:30;99921.94;;;-7.86;86.17
47761;BME280;33524;55.434;38.520;2023-11-21T12:25:09;99916.97;;;-8.19;85.53
47761;BME280;33524;55.434;38.520;2023-11-21T12:27:55;99923.84;;;-8.38;85.90
47761;BME280;33524;55.434;38.520;2023-11-21T12:30:37;99917.00;;;-8.31;86.70
47761;BME280;33524;55.434;38.520;2023-11-21T12:33:18;99922.94;;;-8.23;87.03
47761;BME280;33524;55.434;38.520;2023-11-21T12:36:15;99923.75;;;-8.12;87.64
47761;BME280;33524;55.434;38.520;2023-11-21T12:38:54;99923.81;;;-8.24;86.84
47761;BME280;33524;55.434;38.520;2023-11-21T12:41:37;99935.66;;;-8.15;87.02
47761;BME280;33524;55.434;38.520;2023-11-21T12:44:18;99944.19;;;-8.19;87.18
47761;BME280;33524;55.434;38.520;2023-11-21T12:46:59;99938.16;;;-8.04;88.20
47761;BME280;33524;55.434;38.520;2023-11-21T12:49:37;99942.53;;;-8.28;87.36
47761;BME280;33524;55.434;38.520;2023-11-21T12:52:29;99938.22;;;-8.15;87.50
47761;BME280;33524;55.434;38.520;2023-11-21T12:55:09;99957.84;;;-8.40;87.20
47761;BME280;33524;55.434;38.520;2023-11-21T12:57:55;99946.84;;;-8.48;87.46
47761;BME280;33524;55.434;38.520;2023-11-21T13:00:44;99944.34;;;-8.59;88.05
47761;BME280;33524;55.434;38.520;2023-11-21T13:03:22;99951.97;;;-8.56;88.32
47761;BME280;33524;55.434;38.520;2023-11-21T13:06:03;99946.88;;;-8.67;88.76
47761;BME280;33524;55.434;38.520;2023-11-21T13:08:44;99946.03;;;-8.61;88.82
47761;BME280;33524;55.434;38.520;2023-11-21T13:11:23;99950.28;;;-8.69;88.53
47761;BME280;33524;55.434;38.520;2023-11-21T13:14:06;99956.25;;;-8.78;88.63
47761;BME280;33524;55.434;38.520;2023-11-21T13:16:40;99951.97;;;-8.67;89.68
47761;BME280;33524;55.434;38.520;2023-11-21T13:19:24;99961.31;;;-8.55;90.52
47761;BME280;33524;55.434;38.520;2023-11-21T13:22:02;99965.59;;;-8.63;89.48
47761;BME280;33524;55.434;38.520;2023-11-21T13:24:45;99966.44;;;-8.60;89.73
47761;BME280;33524;55.434;38.520;2023-11-21T13:27:19;99974.06;;;-8.63;89.88
47761;BME280;33524;55.434;38.520;2023-11-21T13:30:00;99979.19;;;-8.67;89.62
47761;BME280;33524;55.434;38.520;2023-11-21T13:32:45;99987.66;;;-8.75;89.84
47761;BME280;33524;55.434;38.520;2023-11-21T13:35:36;99987.66;;;-8.75;89.96
47761;BME280;33524;55.434;38.520;2023-11-21T13:38:21;99990.25;;;-8.70;90.57
47761;BME280;33524;55.434;38.520;2023-11-21T13:41:07;99987.69;;;-8.67;90.56
47761;BME280;33524;55.434;38.520;2023-11-21T13:43:48;100003.81;;;-8.83;90.17
47761;BME280;33524;55.434;38.520;2023-11-21T13:46:30;99996.19;;;-8.88;90.22
47761;BME280;33524;55.434;38.520;2023-11-21T13:49:08;99998.72;;;-8.89;90.89
47761;BME280;33524;55.434;38.520;2023-11-21T13:51:51;100002.97;;;-8.59;93.22